Time;durP1;ratioP1;P1;durP2;ratioP2;P2;SDS_P1;SDS_P2;PMS_P1;PMS_P2;Temp;Humidity;BMP_temperature;BMP_pressure;BME280_temperature;BME280_humidity;BME280_pressure;Samples;Min_cycle;Max_cycle;Signal;HPM_P1;HPM_P2
2023/03/06 00:00:38;;;;;;;2.25;0.50;;;1.70;99.90;;;;;;5004111;28;20124;-36
2023/03/06 00:03:04;;;;;;;3.20;0.65;;;1.70;99.90;;;;;;5001679;28;20515;-36
2023/03/06 00:05:30;;;;;;;2.90;0.88;;;1.70;99.90;;;;;;4999600;28;20045;-37
2023/03/06 00:07:56;;;;;;;2.70;0.50;;;1.70;99.90;;;;;;5002522;28;20045;-37
2023/03/06 00:10:27;;;;;;;3.70;1.08;;;1.60;99.90;;;;;;4992965;28;20070;-37
2023/03/06 00:12:55;;;;;;;1.25;0.50;;;1.60;99.90;;;;;;5003659;28;20053;-37
2023/03/06 00:15:22;;;;;;;4.40;0.57;;;1.60;99.90;;;;;;4998997;28;20803;-37
2023/03/06 00:17:48;;;;;;;3.25;0.57;;;1.50;99.90;;;;;;5001817;28;20053;-39
2023/03/06 00:20:14;;;;;;;2.70;0.82;;;1.50;99.90;;;;;;5005850;28;20053;-36
2023/03/06 00:22:40;;;;;;;3.53;0.80;;;1.50;99.90;;;;;;5000159;28;20058;-36
2023/03/06 00:25:07;;;;;;;4.28;0.60;;;1.50;99.90;;;;;;4999723;28;20068;-37
2023/03/06 00:27:33;;;;;;;3.42;0.68;;;1.50;99.90;;;;;;5003414;28;20053;-36
2023/03/06 00:30:00;;;;;;;2.28;0.70;;;1.50;99.90;;;;;;4999937;28;20076;-37
2023/03/06 00:32:27;;;;;;;3.83;0.85;;;1.50;99.90;;;;;;5000867;28;20085;-36
2023/03/06 00:34:53;;;;;;;3.72;0.70;;;1.40;99.90;;;;;;5003106;28;20050;-36
2023/03/06 00:37:21;;;;;;;3.25;0.70;;;1.40;99.90;;;;;;5001466;28;20073;-36
2023/03/06 00:39:48;;;;;;;3.97;1.10;;;1.40;99.90;;;;;;5001338;28;20507;-37
2023/03/06 00:42:14;;;;;;;3.95;0.80;;;1.40;99.90;;;;;;4997060;28;20770;-36
2023/03/06 00:44:40;;;;;;;3.25;0.90;;;1.40;99.90;;;;;;5001519;28;20046;-36
2023/03/06 00:47:06;;;;;;;5.53;1.08;;;1.40;99.90;;;;;;4996920;28;20461;-36
2023/03/06 00:49:32;;;;;;;3.13;1.05;;;1.40;99.90;;;;;;5002435;28;20058;-36
2023/03/06 00:51:58;;;;;;;4.50;0.93;;;1.40;99.90;;;;;;4998056;28;20574;-36
2023/03/06 00:54:23;;;;;;;4.68;1.00;;;1.40;99.90;;;;;;5005827;28;20073;-37
2023/03/06 00:56:49;;;;;;;7.35;1.20;;;1.40;99.90;;;;;;4997230;28;20053;-36
2023/03/06 00:59:15;;;;;;;4.78;1.08;;;1.40;99.90;;;;;;5003027;28;20119;-37
2023/03/06 01:01:40;;;;;;;3.10;1.25;;;1.40;99.90;;;;;;4998048;28;20094;-37
2023/03/06 01:04:06;;;;;;;3.05;1.30;;;1.30;99.90;;;;;;5001957;28;20069;-36
2023/03/06 01:06:32;;;;;;;4.82;1.40;;;1.30;99.90;;;;;;5007528;28;20054;-36
2023/03/06 01:08:58;;;;;;;3.40;0.80;;;1.30;99.90;;;;;;4999079;28;20385;-37
2023/03/06 01:11:24;;;;;;;4.15;0.95;;;1.20;99.90;;;;;;5001364;28;20058;-36
2023/03/06 01:13:49;;;;;;;3.05;0.95;;;1.20;99.90;;;;;;5001397;28;20475;-36
2023/03/06 01:16:20;;;;;;;4.22;1.40;;;1.20;99.90;;;;;;5001439;28;20667;-35
2023/03/06 01:18:46;;;;;;;4.25;1.25;;;1.30;99.90;;;;;;5001012;28;20061;-36
2023/03/06 01:21:12;;;;;;;4.30;1.25;;;1.30;99.90;;;;;;5000455;28;20057;-36
2023/03/06 01:23:38;;;;;;;4.20;1.60;;;1.30;99.90;;;;;;5001255;28;20107;-37
2023/03/06 01:26:05;;;;;;;4.53;1.30;;;1.30;99.90;;;;;;4997085;28;20088;-36
2023/03/06 01:28:32;;;;;;;3.55;1.38;;;1.40;99.90;;;;;;5001003;28;20057;-37
2023/03/06 01:31:00;;;;;;;3.10;1.70;;;1.40;99.90;;;;;;5000012;28;20502;-37
2023/03/06 01:33:26;;;;;;;3.80;1.25;;;1.40;99.90;;;;;;4999090;28;20458;-37
2023/03/06 01:35:52;;;;;;;6.65;1.90;;;1.40;99.90;;;;;;5000640;28;20054;-36
2023/03/06 01:38:17;;;;;;;3.80;1.80;;;1.50;99.90;;;;;;4998168;28;20050;-35
2023/03/06 01:40:44;;;;;;;3.88;1.70;;;1.50;99.90;;;;;;5002682;28;20092;-35
2023/03/06 01:43:27;;;;;;;3.60;1.75;;;1.50;99.90;;;;;;4996025;28;20080;-37
2023/03/06 01:46:34;;;;;;;5.18;2.22;;;1.60;99.90;;;;;;4999003;28;20092;-37
2023/03/06 01:49:22;;;;;;;5.22;2.40;;;1.60;99.90;;;;;;4996945;28;20054;-36
2023/03/06 01:51:52;;;;;;;4.32;2.08;;;1.60;99.90;;;;;;4998938;28;20058;-36
2023/03/06 01:54:43;;;;;;;5.32;2.08;;;1.60;99.90;;;;;;5002303;28;20060;-36
2023/03/06 01:57:25;;;;;;;4.90;1.90;;;1.70;99.90;;;;;;5006585;28;20093;-38
2023/03/06 01:59:57;;;;;;;3.38;1.80;;;1.70;99.90;;;;;;5003266;28;20061;-36
2023/03/06 02:02:23;;;;;;;4.50;2.42;;;1.70;99.90;;;;;;5003720;28;20884;-36
2023/03/06 02:04:49;;;;;;;4.95;2.17;;;1.80;99.90;;;;;;5004271;28;20050;-36
2023/03/06 02:07:17;;;;;;;4.85;2.20;;;1.80;99.90;;;;;;5003590;28;20484;-36
2023/03/06 02:09:43;;;;;;;6.45;1.83;;;1.80;99.90;;;;;;5005438;28;20141;-36
2023/03/06 02:12:12;;;;;;;6.53;2.63;;;1.80;99.90;;;;;;5007030;28;20156;-36
2023/03/06 02:14:38;;;;;;;4.57;2.53;;;1.80;99.90;;;;;;5003990;28;20050;-36
2023/03/06 02:17:04;;;;;;;4.90;2.50;;;1.80;99.90;;;;;;4996843;28;20053;-36
2023/03/06 02:19:55;;;;;;;5.03;2.35;;;1.90;99.90;;;;;;5002402;28;20085;-36
2023/03/06 02:22:24;;;;;;;7.35;2.47;;;1.90;99.90;;;;;;4996119;28;20085;-36
2023/03/06 02:25:16;;;;;;;5.22;2.38;;;1.90;99.90;;;;;;5004833;28;20561;-36
2023/03/06 02:27:42;;;;;;;7.70;2.67;;;2.00;99.90;;;;;;4996072;28;20060;-37
2023/03/06 02:30:08;;;;;;;5.72;2.55;;;2.00;99.90;;;;;;5004657;28;20062;-36
2023/03/06 02:32:34;;;;;;;5.13;2.70;;;2.00;99.90;;;;;;5004447;28;20562;-36
2023/03/06 02:35:00;;;;;;;5.28;2.35;;;2.00;99.90;;;;;;5003534;28;20053;-36
2023/03/06 02:37:27;;;;;;;7.63;3.50;;;2.10;99.90;;;;;;5000731;28;20562;-36
2023/03/06 02:40:08;;;;;;;8.80;3.97;;;2.20;99.90;;;;;;5017458;28;20099;-36
2023/03/06 02:42:34;;;;;;;9.30;4.03;;;2.20;99.90;;;;;;4999894;28;20061;-37
2023/03/06 02:45:02;;;;;;;7.88;4.07;;;2.30;99.90;;;;;;5000303;28;20045;-36
2023/03/06 02:47:28;;;;;;;8.55;4.32;;;2.30;99.90;;;;;;5000867;28;20104;-37
2023/03/06 02:49:53;;;;;;;8.95;4.70;;;2.40;99.90;;;;;;5003215;28;20062;-36
2023/03/06 02:52:19;;;;;;;10.82;4.72;;;2.40;99.90;;;;;;5000204;28;20053;-36
2023/03/06 02:54:45;;;;;;;7.97;4.07;;;2.40;99.90;;;;;;4998524;28;20065;-36
2023/03/06 02:57:11;;;;;;;8.75;3.97;;;2.50;99.90;;;;;;4996929;28;20125;-36
2023/03/06 02:59:37;;;;;;;11.25;4.72;;;2.50;99.90;;;;;;5002479;28;20177;-37
2023/03/06 03:02:03;;;;;;;9.38;4.20;;;2.50;99.90;;;;;;4999184;28;20400;-37
2023/03/06 03:04:28;;;;;;;13.63;4.25;;;2.60;99.90;;;;;;5004772;28;20411;-37
2023/03/06 03:06:54;;;;;;;10.90;4.03;;;2.60;99.90;;;;;;5006664;28;20045;-37
2023/03/06 03:09:19;;;;;;;7.93;4.32;;;2.60;99.90;;;;;;4998576;28;20060;-37
2023/03/06 03:11:45;;;;;;;8.45;3.70;;;2.70;99.90;;;;;;5000106;28;20077;-36
2023/03/06 03:14:11;;;;;;;9.10;3.80;;;2.70;99.90;;;;;;4998776;28;20054;-36
2023/03/06 03:16:37;;;;;;;10.27;3.88;;;2.70;99.90;;;;;;5004203;28;20081;-36
2023/03/06 03:19:03;;;;;;;9.50;3.80;;;2.70;99.90;;;;;;5004978;28;20054;-36
2023/03/06 03:21:28;;;;;;;7.30;3.20;;;2.80;99.90;;;;;;4995522;28;20053;-36
2023/03/06 03:23:54;;;;;;;6.68;3.55;;;2.80;99.90;;;;;;5000099;28;20050;-36
2023/03/06 03:26:21;;;;;;;8.05;3.20;;;2.80;99.90;;;;;;5003512;28;20431;-36
2023/03/06 03:28:47;;;;;;;6.72;2.80;;;2.80;99.90;;;;;;5001154;28;20421;-37
2023/03/06 03:31:13;;;;;;;5.22;1.50;;;2.80;99.90;;;;;;4995210;28;20046;-36
2023/03/06 03:33:39;;;;;;;1.83;0.82;;;2.90;99.90;;;;;;5003986;28;20046;-36
2023/03/06 03:36:06;;;;;;;1.52;0.50;;;2.90;99.90;;;;;;5002518;28;20046;-36
2023/03/06 03:38:33;;;;;;;3.30;0.40;;;2.90;99.90;;;;;;5001306;28;20073;-36
2023/03/06 03:41:02;;;;;;;0.90;0.30;;;3.00;99.90;;;;;;5001850;28;20481;-36
2023/03/06 03:43:28;;;;;;;2.08;0.40;;;3.00;99.90;;;;;;4996883;28;20193;-36
2023/03/06 03:45:54;;;;;;;1.88;0.45;;;2.90;99.90;;;;;;5001488;28;20486;-36
2023/03/06 03:48:19;;;;;;;2.38;0.55;;;2.90;99.90;;;;;;4993156;28;20141;-36
2023/03/06 03:50:45;;;;;;;1.40;0.55;;;2.90;99.90;;;;;;4999099;28;20058;-37
2023/03/06 03:53:11;;;;;;;2.97;0.50;;;2.90;99.90;;;;;;5002560;28;20077;-36
2023/03/06 03:55:36;;;;;;;1.02;0.43;;;2.90;99.90;;;;;;5002317;28;20050;-37
2023/03/06 03:58:02;;;;;;;1.88;0.50;;;2.90;99.90;;;;;;5016997;28;20510;-37
2023/03/06 04:00:28;;;;;;;2.70;0.40;;;2.90;99.90;;;;;;5002231;28;20579;-37
2023/03/06 04:02:53;;;;;;;1.00;0.45;;;2.90;99.90;;;;;;5002836;28;20602;-36
2023/03/06 04:05:19;;;;;;;1.30;0.50;;;2.90;99.90;;;;;;5001678;28;20048;-36
2023/03/06 04:07:45;;;;;;;2.65;0.47;;;2.90;99.90;;;;;;5001887;28;20064;-36
2023/03/06 04:10:12;;;;;;;3.40;0.55;;;2.90;99.90;;;;;;5001479;28;20049;-37
2023/03/06 04:12:37;;;;;;;1.05;0.50;;;2.90;99.90;;;;;;5002566;28;20096;-37
2023/03/06 04:15:07;;;;;;;1.17;0.45;;;2.90;99.90;;;;;;5004548;28;20054;-37
2023/03/06 04:17:33;;;;;;;1.95;0.57;;;2.90;99.90;;;;;;4999351;28;20061;-38
2023/03/06 04:20:00;;;;;;;1.52;0.60;;;2.90;99.90;;;;;;5002360;28;20061;-37
2023/03/06 04:22:26;;;;;;;1.55;0.50;;;2.90;99.90;;;;;;5002719;28;20049;-37
2023/03/06 04:24:52;;;;;;;2.22;0.40;;;2.90;99.90;;;;;;5002523;28;20054;-37
2023/03/06 04:27:18;;;;;;;2.45;0.55;;;2.90;99.90;;;;;;5003355;28;20061;-37
2023/03/06 04:29:43;;;;;;;1.42;0.45;;;2.80;99.90;;;;;;5000214;28;20421;-37
2023/03/06 04:32:09;;;;;;;0.65;0.30;;;2.80;99.90;;;;;;4999648;28;20066;-37
2023/03/06 04:34:35;;;;;;;1.10;0.40;;;2.80;99.90;;;;;;5003561;28;20125;-37
2023/03/06 04:37:01;;;;;;;3.25;0.38;;;2.80;99.90;;;;;;5006167;28;20049;-37
2023/03/06 04:39:27;;;;;;;2.67;0.40;;;2.80;99.90;;;;;;5000465;28;20045;-37
2023/03/06 04:41:53;;;;;;;0.50;0.20;;;2.70;99.90;;;;;;4999933;28;20057;-36
2023/03/06 04:44:18;;;;;;;0.75;0.30;;;2.70;99.90;;;;;;5003861;28;20095;-37
2023/03/06 04:46:44;;;;;;;0.50;0.20;;;2.70;99.90;;;;;;5001735;28;20400;-37
2023/03/06 04:49:10;;;;;;;1.52;0.40;;;2.70;99.90;;;;;;5003358;28;20049;-36
2023/03/06 04:51:35;;;;;;;1.65;0.43;;;2.70;99.90;;;;;;5002185;28;20077;-37
2023/03/06 04:54:03;;;;;;;1.23;0.30;;;2.70;99.90;;;;;;5001190;28;20506;-36
2023/03/06 04:56:29;;;;;;;1.92;1.05;;;2.70;99.90;;;;;;4996349;28;20074;-37
2023/03/06 04:58:56;;;;;;;1.48;0.80;;;2.70;99.90;;;;;;4998945;28;20069;-36
2023/03/06 05:01:21;;;;;;;2.15;0.30;;;2.70;99.90;;;;;;5001537;28;20475;-36
2023/03/06 05:03:48;;;;;;;1.95;0.20;;;2.70;99.90;;;;;;4993132;28;20046;-37
2023/03/06 05:06:14;;;;;;;4.70;0.50;;;2.70;99.90;;;;;;4998247;28;20050;-36
2023/03/06 05:08:40;;;;;;;1.10;0.40;;;2.80;99.90;;;;;;5005080;28;20573;-36
2023/03/06 05:11:06;;;;;;;1.30;0.40;;;2.80;99.90;;;;;;4999970;28;20074;-35
2023/03/06 05:13:32;;;;;;;1.45;0.50;;;2.80;99.90;;;;;;5003360;28;20243;-36
2023/03/06 05:16:01;;;;;;;1.27;0.40;;;2.80;99.90;;;;;;5022357;28;20147;-36
2023/03/06 05:18:27;;;;;;;1.55;0.50;;;2.70;99.90;;;;;;5003442;28;20747;-36
2023/03/06 05:20:58;;;;;;;1.50;0.30;;;2.70;99.90;;;;;;5003470;28;20065;-36
2023/03/06 05:23:24;;;;;;;1.30;0.30;;;2.70;99.90;;;;;;5003489;28;20077;-36
2023/03/06 05:25:50;;;;;;;0.88;0.40;;;2.60;99.90;;;;;;5001038;28;20124;-36
2023/03/06 05:28:16;;;;;;;1.50;0.50;;;2.60;99.90;;;;;;5002046;28;20478;-37
2023/03/06 05:30:41;;;;;;;1.08;0.30;;;2.60;99.90;;;;;;5007113;28;20050;-37
2023/03/06 05:33:07;;;;;;;1.00;0.40;;;2.60;99.90;;;;;;5004030;28;20076;-37
2023/03/06 05:35:33;;;;;;;0.88;0.30;;;2.60;99.90;;;;;;5006134;28;20096;-37
2023/03/06 05:37:58;;;;;;;1.13;0.40;;;2.60;99.90;;;;;;5003272;28;20401;-37
2023/03/06 05:40:24;;;;;;;2.70;0.30;;;2.60;99.90;;;;;;5007518;28;20126;-36
2023/03/06 05:42:50;;;;;;;1.42;0.70;;;2.60;99.90;;;;;;5007350;28;20058;-37
2023/03/06 05:45:16;;;;;;;1.33;0.40;;;2.60;99.90;;;;;;5002895;28;20050;-37
2023/03/06 05:47:41;;;;;;;1.90;0.30;;;2.60;99.90;;;;;;5007091;28;20150;-37
2023/03/06 05:50:09;;;;;;;1.30;0.47;;;2.50;99.90;;;;;;5004018;28;20062;-37
2023/03/06 05:52:35;;;;;;;2.03;0.45;;;2.50;99.90;;;;;;5008441;28;20056;-37
2023/03/06 05:55:01;;;;;;;1.20;0.45;;;2.50;99.90;;;;;;4992659;28;21289;-37
2023/03/06 05:57:26;;;;;;;3.55;0.65;;;2.40;99.90;;;;;;5005030;28;20491;-37
2023/03/06 05:59:52;;;;;;;0.90;0.30;;;2.40;99.90;;;;;;5003973;28;20452;-37
2023/03/06 06:02:18;;;;;;;1.00;0.50;;;2.30;99.90;;;;;;5008511;28;20770;-37
2023/03/06 06:04:44;;;;;;;3.97;0.50;;;2.30;99.90;;;;;;5005097;28;20621;-38
2023/03/06 06:07:13;;;;;;;0.70;0.30;;;2.20;99.90;;;;;;5000267;28;20049;-36
2023/03/06 06:09:40;;;;;;;1.15;0.40;;;2.20;99.90;;;;;;5003319;28;20568;-36
2023/03/06 06:12:06;;;;;;;1.17;0.40;;;2.10;99.90;;;;;;5004338;28;20081;-38
2023/03/06 06:14:33;;;;;;;0.75;0.30;;;2.10;99.90;;;;;;5008664;28;20050;-36
2023/03/06 06:16:59;;;;;;;0.57;0.30;;;2.10;99.90;;;;;;5006161;28;20054;-42
2023/03/06 06:19:28;;;;;;;0.90;0.20;;;2.00;99.90;;;;;;5005147;28;20045;-42
2023/03/06 06:21:54;;;;;;;2.45;0.30;;;2.00;99.90;;;;;;4998444;28;20104;-42
2023/03/06 06:24:22;;;;;;;2.47;0.20;;;2.00;99.90;;;;;;4998626;28;20057;-41
2023/03/06 06:26:53;;;;;;;0.70;0.20;;;2.00;99.90;;;;;;5000449;28;20128;-41
2023/03/06 06:29:19;;;;;;;1.27;0.40;;;1.90;99.90;;;;;;5000808;28;20586;-40
2023/03/06 06:31:45;;;;;;;0.63;0.30;;;1.90;99.90;;;;;;5001950;28;20065;-41
2023/03/06 06:34:11;;;;;;;1.15;0.30;;;1.90;99.90;;;;;;5003656;28;20507;-43
2023/03/06 06:36:37;;;;;;;0.47;0.35;;;1.90;99.90;;;;;;5003148;28;20147;-41
2023/03/06 06:39:04;;;;;;;0.90;0.30;;;1.80;99.90;;;;;;5004790;28;20598;-44
2023/03/06 06:41:30;;;;;;;0.70;0.30;;;1.80;99.90;;;;;;4996690;28;20052;-42
2023/03/06 06:43:57;;;;;;;1.77;0.35;;;1.80;99.90;;;;;;5005661;28;20746;-43
2023/03/06 06:46:22;;;;;;;1.05;0.20;;;1.70;99.90;;;;;;5004776;28;20050;-43
2023/03/06 06:48:51;;;;;;;0.70;0.30;;;1.70;99.90;;;;;;4995888;28;20050;-41
2023/03/06 06:51:17;;;;;;;0.85;0.30;;;1.70;99.90;;;;;;5011246;28;20057;-44
2023/03/06 06:53:43;;;;;;;1.08;0.40;;;1.70;99.90;;;;;;5005751;28;20503;-43
2023/03/06 06:56:09;;;;;;;0.95;0.45;;;1.70;99.90;;;;;;5001999;28;20073;-42
2023/03/06 06:58:35;;;;;;;1.13;0.40;;;1.70;99.90;;;;;;5003690;28;20507;-43
2023/03/06 07:01:09;;;;;;;0.80;0.40;;;1.80;99.90;;;;;;4997469;28;20057;-43
2023/03/06 07:03:34;;;;;;;2.95;0.50;;;1.80;99.90;;;;;;5001640;28;20049;-44
2023/03/06 07:06:00;;;;;;;1.63;0.40;;;1.80;99.90;;;;;;5004185;28;20050;-37
2023/03/06 07:08:26;;;;;;;3.10;0.75;;;1.80;99.90;;;;;;5004030;28;20060;-35
2023/03/06 07:10:52;;;;;;;1.23;0.35;;;1.80;99.90;;;;;;4992273;28;20153;-35
2023/03/06 07:13:18;;;;;;;0.98;0.30;;;1.80;99.90;;;;;;4999702;28;20062;-35
2023/03/06 07:15:43;;;;;;;0.88;0.20;;;1.80;99.90;;;;;;4993116;28;20062;-35
2023/03/06 07:18:09;;;;;;;1.15;0.32;;;1.80;99.90;;;;;;4994177;28;20388;-35
2023/03/06 07:20:35;;;;;;;0.50;0.20;;;1.90;99.90;;;;;;4999830;28;20058;-39
2023/03/06 07:23:01;;;;;;;0.57;0.20;;;1.90;99.90;;;;;;4999062;28;20111;-35
2023/03/06 07:25:26;;;;;;;1.35;0.32;;;1.90;99.90;;;;;;4999556;28;20050;-35
2023/03/06 07:27:53;;;;;;;2.13;0.45;;;2.00;99.90;;;;;;5004847;28;20072;-35
2023/03/06 07:30:20;;;;;;;1.40;0.32;;;1.90;99.90;;;;;;5012263;28;20061;-35
2023/03/06 07:32:46;;;;;;;3.67;0.60;;;1.90;99.90;;;;;;4999998;28;20551;-35
2023/03/06 07:35:16;;;;;;;2.08;0.50;;;2.00;99.90;;;;;;5014261;28;20062;-35
2023/03/06 07:37:42;;;;;;;8.93;2.75;;;2.00;99.90;;;;;;5000799;28;20473;-37
2023/03/06 07:40:09;;;;;;;18.85;7.40;;;2.00;99.90;;;;;;4995938;28;20053;-35
2023/03/06 07:42:35;;;;;;;20.17;6.82;;;2.10;99.90;;;;;;4996896;28;20072;-36
2023/03/06 07:45:02;;;;;;;34.03;11.52;;;2.10;99.90;;;;;;4997136;28;20045;-35
2023/03/06 07:47:28;;;;;;;38.20;12.75;;;2.20;99.90;;;;;;4999381;28;20062;-36
2023/03/06 07:49:55;;;;;;;25.27;9.55;;;2.30;99.90;;;;;;5001222;28;20061;-36
2023/03/06 07:52:21;;;;;;;16.80;5.80;;;2.40;99.90;;;;;;4999128;28;20503;-37
2023/03/06 07:54:48;;;;;;;22.88;7.82;;;2.50;99.90;;;;;;4997317;28;20488;-35
2023/03/06 07:57:14;;;;;;;15.35;5.70;;;2.50;99.90;;;;;;4999373;28;20411;-35
2023/03/06 07:59:40;;;;;;;15.88;5.95;;;2.50;99.90;;;;;;4993012;28;20049;-38
2023/03/06 08:02:06;;;;;;;13.32;5.75;;;2.50;99.90;;;;;;4998180;28;20129;-35
2023/03/06 08:04:32;;;;;;;18.55;7.50;;;2.50;99.90;;;;;;5000800;28;20045;-35
2023/03/06 08:06:59;;;;;;;11.63;5.25;;;2.50;99.90;;;;;;4994839;28;20077;-36
2023/03/06 08:09:25;;;;;;;5.95;1.90;;;2.50;99.90;;;;;;5001159;28;20500;-35
2023/03/06 08:11:50;;;;;;;6.70;1.55;;;2.50;99.90;;;;;;4999986;28;20103;-37
2023/03/06 08:14:16;;;;;;;4.05;1.65;;;2.50;99.90;;;;;;4996912;28;20065;-35
2023/03/06 08:16:42;;;;;;;1.98;0.70;;;2.60;99.90;;;;;;4998813;28;20418;-35
2023/03/06 08:19:08;;;;;;;2.00;0.80;;;2.60;99.90;;;;;;5000008;28;20129;-36
2023/03/06 08:21:34;;;;;;;2.30;0.60;;;2.70;99.90;;;;;;4997153;28;20491;-34
2023/03/06 08:23:59;;;;;;;2.33;0.90;;;2.70;99.90;;;;;;5001244;28;20050;-36
2023/03/06 08:26:28;;;;;;;2.22;0.70;;;2.80;99.90;;;;;;4999846;28;20053;-37
2023/03/06 08:28:55;;;;;;;1.98;0.70;;;2.80;99.90;;;;;;5001606;28;20046;-36
2023/03/06 08:31:33;;;;;;;4.32;0.88;;;2.80;99.90;;;;;;5001877;28;20045;-36
2023/03/06 08:34:01;;;;;;;2.00;0.68;;;2.90;99.90;;;;;;4999519;28;20138;-36
2023/03/06 08:36:27;;;;;;;1.42;0.50;;;2.90;99.90;;;;;;5003915;28;20077;-35
2023/03/06 08:38:53;;;;;;;2.35;0.57;;;2.90;99.90;;;;;;5001661;28;20054;-36
2023/03/06 08:41:20;;;;;;;2.47;0.40;;;3.00;99.90;;;;;;5001170;28;20050;-35
2023/03/06 08:43:46;;;;;;;1.15;0.50;;;3.10;99.90;;;;;;5004535;28;20041;-35
2023/03/06 08:46:12;;;;;;;1.75;0.50;;;3.20;99.90;;;;;;5014170;28;20504;-35
2023/03/06 08:48:38;;;;;;;5.65;0.98;;;3.20;99.90;;;;;;5001113;28;20064;-36
2023/03/06 08:51:04;;;;;;;1.73;0.55;;;3.30;99.90;;;;;;4996929;28;20278;-36
2023/03/06 08:53:29;;;;;;;1.23;0.60;;;3.40;99.90;;;;;;4998178;28;20551;-42
2023/03/06 08:55:55;;;;;;;1.27;0.45;;;3.50;99.90;;;;;;4997972;28;20129;-43
2023/03/06 08:58:21;;;;;;;1.33;0.80;;;3.60;99.90;;;;;;4991704;28;20450;-44
2023/03/06 09:00:47;;;;;;;1.63;0.70;;;3.70;99.90;;;;;;5000124;28;20556;-44
2023/03/06 09:03:13;;;;;;;1.45;0.40;;;3.80;99.90;;;;;;4994956;28;20053;-42
2023/03/06 09:05:39;;;;;;;1.90;0.28;;;3.90;99.90;;;;;;4997075;28;20058;-42
2023/03/06 09:08:05;;;;;;;5.47;0.60;;;3.90;99.90;;;;;;4999016;28;20056;-43
2023/03/06 09:10:31;;;;;;;1.58;0.40;;;3.90;99.90;;;;;;4999257;28;20045;-36
2023/03/06 09:12:57;;;;;;;1.35;0.45;;;4.00;99.90;;;;;;5000462;28;20088;-36
2023/03/06 09:15:23;;;;;;;1.55;0.38;;;4.10;99.90;;;;;;5001570;28;20124;-37
2023/03/06 09:17:49;;;;;;;0.90;0.30;;;4.20;99.90;;;;;;4999401;28;20091;-36
2023/03/06 09:20:15;;;;;;;1.95;0.40;;;4.30;99.90;;;;;;4999414;28;20049;-37
2023/03/06 09:22:41;;;;;;;1.33;0.40;;;4.40;99.90;;;;;;4998043;28;20492;-36
2023/03/06 09:25:09;;;;;;;1.80;0.40;;;4.50;99.90;;;;;;5000569;28;20056;-37
2023/03/06 09:27:35;;;;;;;2.72;0.32;;;4.70;99.90;;;;;;5002366;28;20522;-36
2023/03/06 09:30:01;;;;;;;2.25;0.30;;;4.80;99.90;;;;;;4999913;28;20399;-37
2023/03/06 09:32:26;;;;;;;3.58;0.50;;;4.90;99.90;;;;;;5010312;28;20175;-36
2023/03/06 09:34:52;;;;;;;1.17;0.50;;;5.00;99.90;;;;;;5000264;28;20054;-38
2023/03/06 09:37:18;;;;;;;1.67;0.40;;;5.00;99.90;;;;;;4999947;28;20507;-38
2023/03/06 09:39:43;;;;;;;1.80;0.30;;;5.10;99.90;;;;;;5001386;28;20077;-36
2023/03/06 09:42:19;;;;;;;1.40;0.75;;;5.00;99.90;;;;;;5000389;28;20050;-37
2023/03/06 09:44:52;;;;;;;3.58;0.52;;;5.10;99.90;;;;;;5002699;28;20065;-37
2023/03/06 09:47:30;;;;;;;3.72;0.80;;;5.10;99.90;;;;;;5001913;28;20119;-42
2023/03/06 09:50:37;;;;;;;4.05;0.70;;;5.20;99.90;;;;;;5001302;28;20427;-42
2023/03/06 09:53:14;;;;;;;2.15;0.40;;;5.20;99.90;;;;;;4988884;28;20058;-41
2023/03/06 09:55:42;;;;;;;2.58;0.50;;;5.30;99.90;;;;;;4999609;28;20407;-43
2023/03/06 09:58:16;;;;;;;1.35;0.50;;;5.40;99.90;;;;;;4999988;28;20070;-44
2023/03/06 10:00:45;;;;;;;1.95;0.40;;;5.50;99.90;;;;;;4997259;28;20046;-43
2023/03/06 10:03:18;;;;;;;2.95;0.30;;;5.60;99.90;;;;;;4996027;28;20100;-43
2023/03/06 10:05:54;;;;;;;2.70;0.50;;;5.80;99.90;;;;;;5000336;28;20144;-43
2023/03/06 10:08:45;;;;;;;4.22;0.98;;;5.90;99.90;;;;;;5002225;28;20079;-42
2023/03/06 10:11:13;;;;;;;2.53;0.65;;;6.00;99.90;;;;;;4997888;28;20081;-43
2023/03/06 10:13:50;;;;;;;3.08;0.68;;;6.00;99.90;;;;;;4998228;28;20054;-44
2023/03/06 10:16:26;;;;;;;3.50;0.82;;;5.90;99.90;;;;;;5005858;28;20062;-47
2023/03/06 10:18:54;;;;;;;1.67;0.50;;;5.70;99.90;;;;;;5004651;28;20553;-37
2023/03/06 10:21:32;;;;;;;1.77;0.40;;;5.50;99.90;;;;;;5007189;28;20072;-45
2023/03/06 10:24:20;;;;;;;2.63;0.38;;;5.30;99.90;;;;;;5002517;28;20057;-42
2023/03/06 10:26:58;;;;;;;2.58;0.57;;;5.20;99.90;;;;;;5019563;28;20049;-45
2023/03/06 10:29:51;;;;;;;0.50;0.22;;;5.10;99.90;;;;;;5000337;28;20053;-43
2023/03/06 10:32:53;;;;;;;2.55;0.40;;;5.10;99.90;;;;;;5003614;28;20067;-42
2023/03/06 10:35:49;;;;;;;2.95;0.52;;;5.20;99.90;;;;;;5003533;28;20061;-43
2023/03/06 10:38:22;;;;;;;1.13;0.30;;;5.50;99.90;;;;;;5004672;28;20410;-44
2023/03/06 10:41:11;;;;;;;3.25;0.22;;;5.80;99.90;;;;;;5002800;28;20124;-42
2023/03/06 10:43:39;;;;;;;3.30;0.20;;;6.00;99.90;;;;;;4992478;28;20062;-43
2023/03/06 10:46:07;;;;;;;2.22;1.20;;;6.10;99.50;;;;;;5003496;28;20089;-42
2023/03/06 10:48:35;;;;;;;1.67;0.30;;;6.10;97.00;;;;;;4990605;28;20076;-43
2023/03/06 10:51:19;;;;;;;1.67;0.15;;;6.20;98.20;;;;;;5000250;28;20073;-44
2023/03/06 10:54:01;;;;;;;1.13;0.20;;;6.30;97.40;;;;;;4995996;28;20046;-44
2023/03/06 10:56:32;;;;;;;3.40;0.40;;;6.40;98.00;;;;;;4991765;28;20584;-37
2023/03/06 10:59:16;;;;;;;0.40;0.10;;;6.60;98.90;;;;;;5003561;28;20410;-37
2023/03/06 11:01:47;;;;;;;0.73;0.10;;;6.60;94.60;;;;;;4998028;28;20155;-37
2023/03/06 11:04:24;;;;;;;1.13;0.22;;;6.60;94.70;;;;;;4998904;28;20397;-37
2023/03/06 11:07:15;;;;;;;1.17;0.30;;;6.60;94.90;;;;;;4996702;28;20058;-37
2023/03/06 11:09:46;;;;;;;0.85;0.20;;;6.70;96.00;;;;;;5014229;28;20133;-36
2023/03/06 11:12:21;;;;;;;1.00;0.30;;;6.50;96.30;;;;;;5002015;28;20072;-36
2023/03/06 11:15:09;;;;;;;1.95;0.40;;;6.30;95.20;;;;;;4995816;28;20850;-36
2023/03/06 11:18:22;;;;;;;0.70;0.20;;;6.20;96.30;;;;;;4996030;28;20135;-37
2023/03/06 11:20:50;;;;;;;0.68;0.20;;;6.10;96.80;;;;;;4999798;28;20084;-36
2023/03/06 11:23:24;;;;;;;0.68;0.20;;;6.20;96.00;;;;;;4994692;28;20057;-37
2023/03/06 11:25:58;;;;;;;2.63;0.10;;;6.30;96.10;;;;;;5000139;28;20500;-37
2023/03/06 11:28:27;;;;;;;0.77;0.30;;;6.20;95.30;;;;;;5004002;28;20085;-36
2023/03/06 11:31:04;;;;;;;1.00;0.20;;;6.20;94.60;;;;;;5012841;28;20053;-37
2023/03/06 11:33:44;;;;;;;3.40;0.40;;;6.10;95.00;;;;;;5000575;28;20054;-36
2023/03/06 11:36:20;;;;;;;3.53;0.38;;;6.10;95.60;;;;;;5002405;28;21985;-37
2023/03/06 11:38:52;;;;;;;0.35;0.10;;;6.10;95.20;;;;;;4998065;28;20096;-37
2023/03/06 11:41:38;;;;;;;0.38;0.10;;;6.20;94.70;;;;;;4999163;28;20049;-37
2023/03/06 11:44:39;;;;;;;1.02;0.20;;;6.30;92.10;;;;;;5013422;28;20132;-37
2023/03/06 11:47:30;;;;;;;0.60;0.20;;;6.50;89.80;;;;;;4990235;28;20066;-37
2023/03/06 11:50:12;;;;;;;2.08;0.20;;;6.70;92.10;;;;;;5001075;28;20049;-38
2023/03/06 11:52:57;;;;;;;0.57;0.22;;;6.90;91.70;;;;;;4997947;28;20050;-37
2023/03/06 11:55:43;;;;;;;0.55;0.15;;;6.80;89.80;;;;;;5001052;28;20049;-37
2023/03/06 11:58:41;;;;;;;0.25;0.10;;;6.90;89.50;;;;;;4995064;28;20491;-38
2023/03/06 12:01:30;;;;;;;0.52;0.10;;;6.90;90.90;;;;;;4996159;28;20054;-37
2023/03/06 12:04:17;;;;;;;0.43;0.10;;;7.10;92.00;;;;;;5001328;28;20056;-37
2023/03/06 12:06:56;;;;;;;0.50;0.10;;;7.20;86.50;;;;;;4992310;28;20045;-37
2023/03/06 12:09:36;;;;;;;0.98;0.17;;;7.50;89.30;;;;;;4998066;28;21164;-38
2023/03/06 12:12:17;;;;;;;0.30;0.10;;;7.60;85.90;;;;;;4999237;28;20161;-37
2023/03/06 12:15:14;;;;;;;2.50;0.20;;;7.70;83.30;;;;;;4996854;28;20041;-36
2023/03/06 12:18:12;;;;;;;2.33;0.20;;;7.90;76.50;;;;;;4997185;28;20517;-36
2023/03/06 12:20:47;;;;;;;1.40;0.10;;;8.10;79.30;;;;;;4995253;28;20056;-37
2023/03/06 12:23:22;;;;;;;1.05;0.20;;;8.40;78.70;;;;;;4998262;28;20141;-37
2023/03/06 12:26:01;;;;;;;1.13;0.10;;;8.50;73.90;;;;;;4998447;28;20050;-36
2023/03/06 12:28:33;;;;;;;0.65;0.10;;;8.50;76.10;;;;;;4997698;28;20054;-37
2023/03/06 12:31:15;;;;;;;1.63;0.00;;;8.60;78.10;;;;;;5000665;28;20057;-36
2023/03/06 12:34:00;;;;;;;0.03;0.00;;;8.60;76.90;;;;;;4998262;28;20046;-37
2023/03/06 12:36:34;;;;;;;1.10;0.20;;;8.70;73.00;;;;;;5001402;28;20067;-37
2023/03/06 12:39:28;;;;;;;0.55;0.10;;;8.70;71.90;;;;;;4998943;28;20085;-37
2023/03/06 12:41:59;;;;;;;4.07;0.52;;;8.60;72.10;;;;;;4991086;28;20408;-37
2023/03/06 12:44:56;;;;;;;1.27;0.10;;;8.70;71.70;;;;;;5000517;28;20050;-37
2023/03/06 12:47:26;;;;;;;1.02;0.15;;;8.90;71.70;;;;;;5013785;28;20057;-38
2023/03/06 12:50:00;;;;;;;0.82;0.10;;;9.10;72.30;;;;;;4999808;28;20138;-38
2023/03/06 12:52:30;;;;;;;1.75;0.10;;;9.30;70.80;;;;;;4996914;28;20076;-37
2023/03/06 12:54:58;;;;;;;1.88;0.15;;;9.60;70.60;;;;;;4997374;28;20128;-37
2023/03/06 12:57:25;;;;;;;0.50;0.10;;;9.60;68.90;;;;;;5001077;28;20495;-38
2023/03/06 12:59:52;;;;;;;0.60;0.13;;;9.80;71.20;;;;;;5001291;28;20049;-37
2023/03/06 13:02:55;;;;;;;1.65;0.13;;;9.70;67.40;;;;;;5006301;28;20506;-36
2023/03/06 13:05:28;;;;;;;1.38;0.10;;;9.80;67.30;;;;;;5014732;28;20116;-36
2023/03/06 13:08:19;;;;;;;1.17;0.57;;;10.00;68.40;;;;;;4996753;28;20057;-36
2023/03/06 13:11:21;;;;;;;1.85;0.25;;;10.00;67.00;;;;;;4996688;28;20145;-36